createdAt,value
2017-05-09T00:00:48.112Z,99.99
2017-05-09T00:01:50.479Z,99.99
2017-05-09T00:02:53.609Z,99.99
2017-05-09T00:03:55.967Z,99.99
2017-05-09T00:04:58.355Z,99.99
2017-05-09T00:06:00.721Z,99.99
2017-05-09T00:07:03.086Z,99.99
2017-05-09T00:08:06.145Z,99.99
2017-05-09T00:09:08.507Z,99.99
2017-05-09T00:10:10.895Z,99.99
2017-05-09T00:11:13.267Z,99.99
2017-05-09T00:12:15.637Z,99.99
2017-05-09T00:13:18.613Z,99.99
2017-05-09T00:14:20.999Z,99.99
2017-05-09T00:15:23.357Z,99.99
2017-05-09T00:16:25.722Z,99.99
2017-05-09T00:17:28.105Z,99.99
2017-05-09T00:18:31.097Z,99.99
2017-05-09T00:19:33.473Z,99.99
2017-05-09T00:20:35.840Z,99.99
2017-05-09T00:21:38.204Z,99.99
2017-05-09T00:22:40.564Z,99.99
2017-05-09T00:23:43.534Z,99.99
2017-05-09T00:24:45.908Z,99.99
2017-05-09T00:25:48.285Z,99.99
2017-05-09T00:26:50.657Z,99.99
2017-05-09T00:27:53.021Z,99.99
2017-05-09T00:28:56.016Z,99.99
2017-05-09T00:29:58.383Z,99.99
2017-05-09T00:31:00.744Z,99.99
2017-05-09T00:32:03.121Z,99.99
2017-05-09T00:33:05.489Z,99.99
2017-05-09T00:34:08.452Z,99.99
2017-05-09T00:35:10.823Z,99.99
2017-05-09T00:36:13.395Z,99.99
2017-05-09T00:37:15.747Z,99.99
2017-05-09T00:38:18.123Z,99.99
2017-05-09T00:39:21.200Z,99.99
2017-05-09T00:40:23.559Z,99.99
2017-05-09T00:41:25.945Z,99.99
2017-05-09T00:42:28.295Z,99.99
2017-05-09T00:43:30.671Z,99.99
2017-05-09T00:44:33.628Z,99.99
2017-05-09T00:45:35.996Z,99.99
2017-05-09T00:46:38.387Z,99.99
2017-05-09T00:47:40.749Z,99.99
2017-05-09T00:48:43.135Z,99.99
2017-05-09T00:49:46.099Z,99.99
2017-05-09T00:50:48.459Z,99.99
2017-05-09T00:51:50.835Z,99.99
2017-05-09T00:52:53.196Z,99.99
2017-05-09T00:53:55.574Z,99.99
2017-05-09T00:54:58.652Z,99.99
2017-05-09T00:56:01.017Z,99.99
2017-05-09T00:57:03.400Z,99.99
2017-05-09T00:58:05.770Z,99.99
2017-05-09T00:59:08.152Z,99.99
2017-05-09T01:00:11.102Z,99.99
2017-05-09T01:01:13.461Z,99.99
2017-05-09T01:02:15.851Z,99.99
2017-05-09T01:03:18.207Z,95.68
2017-05-09T01:04:20.587Z,39.69
2017-05-09T01:05:23.953Z,17.96
2017-05-09T01:06:26.336Z,0.00
2017-05-09T01:07:28.716Z,0.00
2017-05-09T01:08:31.076Z,0.00
2017-05-09T01:09:33.442Z,0.00
2017-05-09T01:10:36.399Z,0.00
2017-05-09T01:11:38.776Z,0.00
2017-05-09T01:12:41.143Z,0.00
2017-05-09T01:13:43.508Z,0.00
2017-05-09T01:14:45.897Z,0.00
2017-05-09T01:15:48.856Z,0.00
2017-05-09T01:16:51.248Z,0.00
2017-05-09T01:17:53.607Z,0.00
2017-05-09T01:18:56.023Z,0.00
2017-05-09T01:19:58.359Z,0.00
2017-05-09T01:21:01.355Z,0.00
2017-05-09T01:22:03.734Z,0.00
2017-05-09T01:23:06.125Z,0.00
2017-05-09T01:24:08.494Z,0.00
2017-05-09T01:25:10.881Z,0.00
2017-05-09T01:26:13.964Z,0.00
2017-05-09T01:27:16.323Z,0.00
2017-05-09T01:28:18.728Z,0.00
2017-05-09T01:29:21.111Z,0.00
2017-05-09T01:30:23.501Z,0.00
2017-05-09T01:31:26.492Z,0.00
2017-05-09T01:32:28.883Z,0.00
2017-05-09T01:33:31.276Z,0.00
2017-05-09T01:34:33.669Z,0.00
2017-05-09T01:35:36.045Z,0.00
2017-05-09T01:36:39.032Z,0.00
2017-05-09T01:37:41.419Z,0.00
2017-05-09T01:38:43.789Z,0.00
2017-05-09T01:39:46.180Z,0.00
2017-05-09T01:40:48.565Z,0.00
2017-05-09T01:41:51.564Z,0.00
2017-05-09T01:42:53.934Z,0.00
2017-05-09T01:43:56.521Z,0.00
2017-05-09T01:44:58.899Z,0.00
2017-05-09T01:46:01.261Z,0.00
2017-05-09T01:47:04.225Z,0.00
2017-05-09T01:48:06.605Z,0.00
2017-05-09T01:49:08.969Z,0.00
2017-05-09T01:50:11.548Z,0.00
2017-05-09T01:51:13.899Z,0.00
2017-05-09T01:52:16.866Z,0.19
2017-05-09T01:53:19.232Z,0.67
2017-05-09T01:54:21.602Z,1.25
2017-05-09T01:55:23.981Z,1.54
2017-05-09T01:56:26.359Z,0.87
2017-05-09T01:57:29.356Z,1.06
2017-05-09T01:58:31.711Z,2.03
2017-05-09T01:59:34.290Z,2.51
2017-05-09T02:00:36.669Z,2.80
2017-05-09T02:01:39.045Z,3.09
2017-05-09T02:02:42.010Z,3.57
2017-05-09T02:03:44.391Z,3.96
2017-05-09T02:04:46.777Z,4.44
2017-05-09T02:05:49.170Z,4.44
2017-05-09T02:06:51.545Z,4.24
2017-05-09T02:07:54.531Z,4.44
2017-05-09T02:08:56.920Z,4.24
2017-05-09T02:09:59.292Z,3.18
2017-05-09T02:11:01.675Z,3.28
2017-05-09T02:12:04.051Z,3.18
2017-05-09T02:13:07.134Z,3.66
2017-05-09T02:14:09.497Z,4.24
2017-05-09T02:15:11.857Z,5.21
2017-05-09T02:16:14.241Z,5.60
2017-05-09T02:17:16.638Z,6.27
2017-05-09T02:18:19.625Z,4.82
2017-05-09T02:19:22.014Z,4.05
2017-05-09T02:20:24.403Z,3.47
2017-05-09T02:21:26.782Z,3.86
2017-05-09T02:22:29.164Z,3.57
2017-05-09T02:23:32.156Z,3.18
2017-05-09T02:24:34.531Z,2.60
2017-05-09T02:25:36.913Z,1.83
2017-05-09T02:26:39.300Z,1.83
2017-05-09T02:27:41.660Z,1.64
2017-05-09T02:28:44.667Z,1.93
2017-05-09T02:29:47.040Z,2.31
2017-05-09T02:30:49.428Z,2.12
2017-05-09T02:31:51.793Z,2.31
2017-05-09T02:32:54.174Z,1.54
2017-05-09T02:33:57.135Z,1.35
2017-05-09T02:34:59.495Z,1.35
2017-05-09T02:36:01.853Z,0.77
2017-05-09T02:37:04.238Z,0.00
2017-05-09T02:38:06.623Z,0.00
2017-05-09T02:39:09.621Z,0.19
2017-05-09T02:40:12.209Z,0.87
2017-05-09T02:41:14.608Z,1.15
2017-05-09T02:42:16.980Z,1.25
2017-05-09T02:43:19.364Z,1.06
2017-05-09T02:44:22.537Z,1.25
2017-05-09T02:45:24.933Z,1.15
2017-05-09T02:46:27.322Z,0.77
2017-05-09T02:47:29.709Z,1.15
2017-05-09T02:48:32.075Z,1.45
2017-05-09T02:49:35.097Z,2.03
2017-05-09T02:50:37.476Z,2.03
2017-05-09T02:51:39.856Z,2.51
2017-05-09T02:52:42.235Z,2.89
2017-05-09T02:53:44.797Z,3.38
2017-05-09T02:54:47.836Z,3.86
2017-05-09T02:55:50.207Z,3.47
2017-05-09T02:56:52.601Z,3.86
2017-05-09T02:57:54.988Z,4.15
2017-05-09T02:58:57.361Z,3.86
2017-05-09T03:00:00.335Z,0.00
2017-05-09T03:01:02.720Z,0.00
2017-05-09T03:02:05.115Z,0.00
2017-05-09T03:03:07.506Z,0.00
2017-05-09T03:04:09.881Z,0.00
2017-05-09T03:05:12.875Z,0.00
2017-05-09T03:06:15.275Z,0.00
2017-05-09T03:07:17.865Z,0.00
2017-05-09T03:08:20.251Z,0.00
2017-05-09T03:09:22.627Z,0.00
2017-05-09T03:10:25.607Z,0.00
2017-05-09T03:11:27.946Z,0.00
2017-05-09T03:12:30.315Z,0.00
2017-05-09T03:13:32.705Z,0.00
2017-05-09T03:14:35.078Z,0.00
2017-05-09T03:15:38.050Z,0.00
2017-05-09T03:16:40.419Z,0.00
2017-05-09T03:17:42.812Z,0.00
2017-05-09T03:18:45.199Z,0.00
2017-05-09T03:19:47.571Z,0.00
2017-05-09T03:20:50.561Z,0.00
2017-05-09T03:21:52.963Z,0.00
2017-05-09T03:22:55.348Z,0.00
2017-05-09T03:23:57.742Z,0.00
2017-05-09T03:25:00.114Z,0.00
2017-05-09T03:26:03.091Z,7.14
2017-05-09T03:27:05.449Z,22.60
2017-05-09T03:28:08.040Z,36.03
2017-05-09T03:29:10.441Z,46.47
2017-05-09T03:30:12.795Z,55.42
2017-05-09T03:31:15.777Z,60.38
2017-05-09T03:32:18.137Z,63.28
2017-05-09T03:33:20.532Z,64.50
2017-05-09T03:34:22.900Z,63.73
2017-05-09T03:35:25.265Z,62.79
2017-05-09T03:36:28.250Z,63.34
2017-05-09T03:37:30.618Z,76.47
2017-05-09T03:38:32.989Z,91.15
2017-05-09T03:39:35.371Z,97.04
2017-05-09T03:40:37.763Z,99.94
2017-05-09T03:41:40.728Z,99.99
2017-05-09T03:42:43.099Z,99.99
2017-05-09T03:43:45.471Z,99.99
2017-05-09T03:44:47.867Z,99.99
2017-05-09T03:45:50.237Z,99.99
2017-05-09T03:46:53.200Z,99.99
2017-05-09T03:47:55.556Z,99.99
2017-05-09T03:48:57.933Z,99.99
2017-05-09T03:50:00.304Z,99.99
2017-05-09T03:51:02.669Z,99.99
2017-05-09T03:52:05.646Z,99.99
2017-05-09T03:53:08.017Z,99.99
2017-05-09T03:54:10.406Z,99.99
2017-05-09T03:55:12.774Z,99.99
2017-05-09T03:56:15.143Z,99.99
2017-05-09T03:57:18.121Z,99.99
2017-05-09T03:58:20.501Z,99.99
2017-05-09T03:59:22.885Z,99.99
2017-05-09T04:00:25.245Z,99.99
2017-05-09T04:01:27.594Z,99.99
2017-05-09T04:02:30.572Z,99.99
2017-05-09T04:03:32.916Z,99.99
2017-05-09T04:04:35.297Z,99.99
2017-05-09T04:05:37.654Z,99.99
2017-05-09T04:06:40.013Z,99.99
2017-05-09T04:07:42.971Z,99.99
2017-05-09T04:08:45.338Z,99.99
2017-05-09T04:09:47.702Z,99.99
2017-05-09T04:10:50.065Z,99.99
2017-05-09T04:11:52.433Z,99.99
2017-05-09T04:12:55.399Z,99.99
2017-05-09T04:13:57.757Z,99.99
2017-05-09T04:15:00.126Z,99.99
2017-05-09T04:16:02.477Z,99.99
2017-05-09T04:17:04.830Z,99.99
2017-05-09T04:18:07.812Z,99.99
2017-05-09T04:19:10.177Z,99.99
2017-05-09T04:20:12.536Z,99.99
2017-05-09T04:21:14.913Z,99.99
2017-05-09T04:22:17.263Z,99.99
2017-05-09T04:23:20.197Z,99.99
2017-05-09T04:24:22.551Z,99.99
2017-05-09T04:25:24.915Z,99.99
2017-05-09T04:26:27.282Z,99.99
2017-05-09T04:27:29.649Z,99.99
2017-05-09T04:28:32.614Z,99.99
2017-05-09T04:29:34.965Z,99.99
2017-05-09T04:30:37.331Z,99.99
2017-05-09T04:31:39.691Z,99.99
2017-05-09T04:32:42.049Z,99.99
2017-05-09T04:33:44.966Z,99.99
2017-05-09T04:34:47.329Z,99.99
2017-05-09T04:35:49.685Z,99.99
2017-05-09T04:36:52.038Z,99.99
2017-05-09T04:37:54.411Z,99.99
2017-05-09T04:38:57.333Z,99.99
2017-05-09T04:39:59.693Z,99.99
2017-05-09T04:41:02.049Z,99.99
2017-05-09T04:42:04.404Z,99.99
2017-05-09T04:43:06.772Z,99.99
2017-05-09T04:44:09.682Z,99.99
2017-05-09T04:45:12.033Z,99.99
2017-05-09T04:46:14.409Z,99.99
2017-05-09T04:47:16.770Z,99.99
2017-05-09T04:48:19.124Z,99.99
2017-05-09T04:49:22.035Z,99.99
2017-05-09T04:50:24.398Z,99.99
2017-05-09T04:51:26.760Z,99.99
2017-05-09T04:52:29.120Z,99.99
2017-05-09T04:53:31.483Z,99.99
2017-05-09T04:54:34.449Z,99.99
2017-05-09T04:55:37.005Z,99.99
2017-05-09T04:56:39.369Z,99.99
2017-05-09T04:57:41.751Z,99.99
2017-05-09T04:58:44.107Z,99.99
2017-05-09T04:59:47.017Z,99.99
2017-05-09T05:00:49.372Z,99.99
2017-05-09T05:01:51.745Z,99.99
2017-05-09T05:02:54.112Z,99.99
2017-05-09T05:03:56.487Z,99.99
2017-05-09T05:04:59.455Z,99.99
2017-05-09T05:06:02.035Z,99.99
2017-05-09T05:07:04.398Z,99.99
2017-05-09T05:08:06.763Z,99.99
2017-05-09T05:09:09.114Z,99.99
2017-05-09T05:10:12.078Z,99.99
2017-05-09T05:11:14.440Z,99.99
2017-05-09T05:12:16.793Z,99.99
2017-05-09T05:13:19.156Z,99.99
2017-05-09T05:14:21.513Z,99.99
2017-05-09T05:15:24.422Z,99.99
2017-05-09T05:16:26.783Z,99.99
2017-05-09T05:17:29.139Z,99.99
2017-05-09T05:18:31.497Z,99.99
2017-05-09T05:19:33.865Z,99.99
2017-05-09T05:20:36.827Z,99.99
2017-05-09T05:21:39.193Z,99.99
2017-05-09T05:22:41.560Z,99.99
2017-05-09T05:23:43.914Z,99.99
2017-05-09T05:24:46.290Z,99.99
2017-05-09T05:25:49.215Z,99.99
2017-05-09T05:26:51.578Z,99.99
2017-05-09T05:27:53.932Z,99.99
2017-05-09T05:28:56.293Z,99.99
2017-05-09T05:29:58.657Z,99.99
2017-05-09T05:31:01.565Z,99.99
2017-05-09T05:32:03.941Z,99.99
2017-05-09T05:33:06.303Z,99.99
2017-05-09T05:34:08.651Z,99.99
2017-05-09T05:35:11.016Z,99.99
2017-05-09T05:36:13.931Z,99.99
2017-05-09T05:37:16.293Z,99.99
2017-05-09T05:38:18.664Z,99.99
2017-05-09T05:39:21.024Z,99.99
2017-05-09T05:40:23.379Z,99.99
2017-05-09T05:41:26.342Z,99.99
2017-05-09T05:42:28.695Z,99.99
2017-05-09T05:43:31.049Z,99.99
2017-05-09T05:44:33.412Z,99.99
2017-05-09T05:45:35.767Z,99.99
2017-05-09T05:46:38.730Z,99.99
2017-05-09T05:47:41.087Z,99.99
2017-05-09T05:48:43.438Z,99.99
2017-05-09T05:49:45.826Z,99.99
2017-05-09T05:50:48.157Z,99.99
2017-05-09T05:51:51.070Z,99.99
2017-05-09T05:52:53.426Z,99.99
2017-05-09T05:53:55.789Z,99.99
2017-05-09T05:54:58.138Z,99.99
2017-05-09T05:56:00.492Z,99.99
2017-05-09T05:57:03.457Z,99.99
2017-05-09T05:58:05.808Z,99.99
2017-05-09T05:59:08.164Z,99.99
2017-05-09T06:00:10.529Z,99.99
2017-05-09T06:01:12.887Z,99.99
2017-05-09T06:02:15.799Z,99.99
2017-05-09T06:03:18.161Z,99.99
2017-05-09T06:04:20.517Z,99.99
2017-05-09T06:05:22.886Z,99.99
2017-05-09T06:06:25.234Z,99.99
2017-05-09T06:07:28.142Z,99.99
2017-05-09T06:08:30.495Z,99.99
2017-05-09T06:09:32.862Z,99.99
2017-05-09T06:10:35.217Z,99.99
2017-05-09T06:11:37.579Z,99.99
2017-05-09T06:12:40.485Z,99.99
2017-05-09T06:13:42.842Z,99.99
2017-05-09T06:14:45.210Z,99.99
2017-05-09T06:15:47.565Z,99.99
2017-05-09T06:16:49.917Z,99.99
2017-05-09T06:17:52.827Z,99.99
2017-05-09T06:18:55.183Z,99.99
2017-05-09T06:19:57.536Z,99.99
2017-05-09T06:20:59.894Z,99.99
2017-05-09T06:22:02.242Z,99.99
2017-05-09T06:23:05.201Z,99.99
2017-05-09T06:24:07.571Z,99.99
2017-05-09T06:25:09.931Z,99.99
2017-05-09T06:26:12.300Z,99.99
2017-05-09T06:27:14.661Z,99.99
2017-05-09T06:28:17.624Z,99.99
2017-05-09T06:29:19.984Z,99.99
2017-05-09T06:30:22.339Z,99.99
2017-05-09T06:31:24.703Z,99.99
2017-05-09T06:32:27.057Z,99.99
2017-05-09T06:33:30.122Z,99.99
2017-05-09T06:34:32.503Z,99.99
2017-05-09T06:35:34.858Z,99.99
2017-05-09T06:36:37.220Z,99.99
2017-05-09T06:37:39.572Z,99.99
2017-05-09T06:38:42.635Z,99.99
2017-05-09T06:39:44.982Z,99.99
2017-05-09T06:40:47.341Z,99.99
2017-05-09T06:41:49.701Z,99.99
2017-05-09T06:42:52.071Z,99.99
2017-05-09T06:43:55.022Z,99.99
2017-05-09T06:44:57.384Z,99.99
2017-05-09T06:45:59.728Z,99.99
2017-05-09T06:47:02.091Z,99.99
2017-05-09T06:48:04.450Z,99.99
2017-05-09T06:49:07.411Z,99.99
2017-05-09T06:50:09.765Z,99.99
2017-05-09T06:51:12.131Z,99.99
2017-05-09T06:52:14.499Z,99.99
2017-05-09T06:53:16.861Z,99.99
2017-05-09T06:54:19.926Z,99.99
2017-05-09T06:55:22.289Z,99.99
2017-05-09T06:56:24.661Z,99.99
2017-05-09T06:57:27.023Z,99.99
2017-05-09T06:58:29.369Z,99.99
2017-05-09T06:59:32.430Z,99.99
2017-05-09T07:00:34.799Z,99.99
2017-05-09T07:01:37.171Z,99.99
2017-05-09T07:02:39.523Z,99.99
2017-05-09T07:03:41.872Z,99.99
2017-05-09T07:04:44.836Z,99.99
2017-05-09T07:05:47.197Z,99.99
2017-05-09T07:06:49.556Z,99.99
2017-05-09T07:07:51.905Z,99.99
2017-05-09T07:08:54.260Z,99.99
2017-05-09T07:09:57.165Z,99.99
2017-05-09T07:10:59.525Z,99.99
2017-05-09T07:12:01.886Z,99.99
2017-05-09T07:13:04.234Z,99.99
2017-05-09T07:14:06.598Z,99.99
2017-05-09T07:15:09.518Z,99.99
2017-05-09T07:16:11.869Z,99.99
2017-05-09T07:17:14.227Z,99.99
2017-05-09T07:18:16.587Z,99.99
2017-05-09T07:19:18.946Z,99.99
2017-05-09T07:20:22.000Z,99.99
2017-05-09T07:21:24.370Z,99.99
2017-05-09T07:22:26.729Z,99.99
2017-05-09T07:23:29.101Z,99.99
2017-05-09T07:24:31.473Z,99.99
2017-05-09T07:25:34.420Z,99.99
2017-05-09T07:26:36.775Z,99.99
2017-05-09T07:27:39.136Z,99.99
2017-05-09T07:28:41.493Z,99.99
2017-05-09T07:29:43.853Z,99.99
2017-05-09T07:30:46.763Z,99.99
2017-05-09T07:31:49.122Z,99.99
2017-05-09T07:32:51.476Z,99.99
2017-05-09T07:33:53.845Z,99.99
2017-05-09T07:34:56.192Z,99.99
2017-05-09T07:35:59.160Z,99.99
2017-05-09T07:37:01.525Z,99.99
2017-05-09T07:38:03.885Z,99.99
2017-05-09T07:39:06.240Z,99.99
2017-05-09T07:40:08.594Z,99.99
2017-05-09T07:41:11.550Z,99.99
2017-05-09T07:42:13.907Z,99.99
2017-05-09T07:43:16.260Z,99.99
2017-05-09T07:44:18.620Z,99.99
2017-05-09T07:45:20.974Z,99.99
2017-05-09T07:46:24.033Z,99.99
2017-05-09T07:47:26.401Z,99.99
2017-05-09T07:48:28.767Z,99.99
2017-05-09T07:49:31.118Z,99.99
2017-05-09T07:50:33.474Z,99.99
2017-05-09T07:51:36.434Z,99.99
2017-05-09T07:52:38.792Z,99.99
2017-05-09T07:53:41.152Z,99.99
2017-05-09T07:54:43.514Z,99.99
2017-05-09T07:55:45.866Z,99.99
2017-05-09T07:56:48.823Z,99.99
2017-05-09T07:57:51.191Z,99.99
2017-05-09T07:58:53.548Z,99.99
2017-05-09T07:59:55.896Z,99.99
2017-05-09T08:00:58.259Z,99.99
2017-05-09T08:02:01.315Z,99.99
2017-05-09T08:03:03.676Z,99.99
2017-05-09T08:04:06.045Z,99.99
2017-05-09T08:05:08.419Z,99.99
2017-05-09T08:06:10.768Z,99.99
2017-05-09T08:07:13.726Z,99.99
2017-05-09T08:08:16.092Z,99.99
2017-05-09T08:09:18.445Z,99.99
2017-05-09T08:10:20.807Z,99.99
2017-05-09T08:11:23.165Z,99.99
2017-05-09T08:12:26.128Z,99.99
2017-05-09T08:13:28.476Z,99.99
2017-05-09T08:14:30.838Z,99.99
2017-05-09T08:15:33.202Z,99.99
2017-05-09T08:16:35.559Z,99.99
2017-05-09T08:17:38.518Z,99.99
2017-05-09T08:18:40.875Z,99.99
2017-05-09T08:19:43.224Z,99.99
2017-05-09T08:20:45.575Z,99.99
2017-05-09T08:21:47.946Z,99.99
2017-05-09T08:22:50.905Z,99.99
2017-05-09T08:23:53.267Z,99.99
2017-05-09T08:24:55.621Z,99.99
2017-05-09T08:25:57.980Z,99.99
2017-05-09T08:27:00.337Z,99.99
2017-05-09T08:28:03.397Z,99.99
2017-05-09T08:29:05.741Z,99.99
2017-05-09T08:30:08.101Z,99.99
2017-05-09T08:31:10.452Z,99.99
2017-05-09T08:32:12.813Z,99.99
2017-05-09T08:33:15.871Z,99.99
2017-05-09T08:34:18.226Z,99.99
2017-05-09T08:35:20.584Z,99.99
2017-05-09T08:36:22.942Z,99.99
2017-05-09T08:37:25.498Z,99.99
2017-05-09T08:38:28.559Z,99.99
2017-05-09T08:39:30.926Z,99.99
2017-05-09T08:40:33.284Z,99.99
2017-05-09T08:41:35.642Z,99.99
2017-05-09T08:42:38.000Z,99.99
2017-05-09T08:43:40.968Z,99.99
2017-05-09T08:44:43.313Z,99.99
2017-05-09T08:45:45.673Z,99.99
2017-05-09T08:46:48.040Z,99.99
2017-05-09T08:47:50.397Z,99.99
2017-05-09T08:48:53.309Z,99.99
2017-05-09T08:49:55.669Z,99.99
2017-05-09T08:50:58.030Z,99.99
2017-05-09T08:52:00.383Z,99.99
2017-05-09T08:53:02.736Z,99.99
2017-05-09T08:54:05.702Z,99.99
2017-05-09T08:55:08.069Z,99.99
2017-05-09T08:56:10.421Z,99.99
2017-05-09T08:57:12.779Z,99.99
2017-05-09T08:58:15.133Z,99.99
2017-05-09T08:59:18.088Z,99.99
2017-05-09T09:00:20.447Z,99.99
2017-05-09T09:01:22.842Z,99.99
2017-05-09T09:02:25.153Z,99.99
2017-05-09T09:03:27.517Z,99.99
2017-05-09T09:04:30.489Z,99.99
2017-05-09T09:05:32.848Z,99.99
2017-05-09T09:06:35.200Z,99.99
2017-05-09T09:07:37.556Z,99.99
2017-05-09T09:08:39.916Z,99.99
2017-05-09T09:09:42.982Z,99.99
2017-05-09T09:10:45.335Z,99.99
2017-05-09T09:11:47.712Z,99.99
2017-05-09T09:12:50.064Z,99.99
2017-05-09T09:13:52.424Z,99.99
2017-05-09T09:14:55.377Z,99.99
2017-05-09T09:15:57.740Z,99.99
2017-05-09T09:17:00.104Z,99.99
2017-05-09T09:18:02.463Z,99.99
2017-05-09T09:19:04.819Z,99.99
2017-05-09T09:20:07.730Z,99.99
2017-05-09T09:21:10.092Z,99.99
2017-05-09T09:22:12.444Z,99.99
2017-05-09T09:23:14.802Z,99.99
2017-05-09T09:24:17.171Z,99.99
2017-05-09T09:25:20.078Z,99.99
2017-05-09T09:26:22.436Z,99.99
2017-05-09T09:27:24.803Z,99.99
2017-05-09T09:28:27.165Z,99.99
2017-05-09T09:29:29.523Z,99.99
2017-05-09T09:30:32.423Z,99.99
2017-05-09T09:31:34.793Z,99.99
2017-05-09T09:32:37.160Z,99.99
2017-05-09T09:33:39.516Z,99.99
2017-05-09T09:34:41.879Z,99.99
2017-05-09T09:35:44.949Z,99.99
2017-05-09T09:36:47.304Z,99.99
2017-05-09T09:37:49.666Z,99.99
2017-05-09T09:38:52.022Z,99.99
2017-05-09T09:39:54.382Z,99.99
2017-05-09T09:40:57.343Z,99.99
2017-05-09T09:41:59.702Z,99.99
2017-05-09T09:43:02.059Z,99.99
2017-05-09T09:44:04.424Z,99.99
2017-05-09T09:45:06.783Z,99.99
2017-05-09T09:46:09.693Z,99.99
2017-05-09T09:47:12.047Z,99.99
2017-05-09T09:48:14.409Z,99.99
2017-05-09T09:49:16.771Z,99.99
2017-05-09T09:50:19.133Z,99.99
2017-05-09T09:51:22.179Z,99.99
2017-05-09T09:52:24.542Z,99.99
2017-05-09T09:53:26.899Z,99.99
2017-05-09T09:54:29.249Z,99.99
2017-05-09T09:55:31.609Z,99.99
2017-05-09T09:56:34.563Z,99.99
2017-05-09T09:57:36.920Z,99.99
2017-05-09T09:58:39.287Z,99.99
2017-05-09T09:59:41.647Z,99.99
2017-05-09T10:00:44.002Z,99.99
2017-05-09T10:01:46.915Z,99.99
2017-05-09T10:02:49.274Z,99.99
2017-05-09T10:03:51.635Z,99.99
2017-05-09T10:04:53.998Z,99.99
2017-05-09T10:05:56.357Z,99.99
2017-05-09T10:06:59.426Z,99.99
2017-05-09T10:08:01.778Z,99.99
2017-05-09T10:09:04.140Z,99.99
2017-05-09T10:10:06.495Z,99.99
2017-05-09T10:11:08.859Z,99.99
2017-05-09T10:12:11.827Z,99.99
2017-05-09T10:13:14.188Z,99.99
2017-05-09T10:14:16.544Z,99.99
2017-05-09T10:15:18.920Z,99.99
2017-05-09T10:16:21.275Z,99.99
2017-05-09T10:17:24.193Z,99.99
2017-05-09T10:18:26.551Z,99.99
2017-05-09T10:19:28.913Z,99.99
2017-05-09T10:20:31.262Z,99.99
2017-05-09T10:21:33.617Z,99.99
2017-05-09T10:22:36.580Z,99.99
2017-05-09T10:23:38.946Z,99.99
2017-05-09T10:24:41.314Z,99.99
2017-05-09T10:25:43.678Z,99.99
2017-05-09T10:26:46.034Z,99.99
2017-05-09T10:27:48.995Z,99.99
2017-05-09T10:28:51.365Z,99.99
2017-05-09T10:29:53.719Z,99.99
2017-05-09T10:30:56.083Z,99.99
2017-05-09T10:31:58.449Z,99.99
2017-05-09T10:33:01.518Z,99.99
2017-05-09T10:34:03.879Z,99.99
2017-05-09T10:35:06.240Z,99.99
2017-05-09T10:36:08.593Z,99.99
2017-05-09T10:37:10.956Z,99.99
2017-05-09T10:38:13.913Z,99.99
2017-05-09T10:39:16.270Z,99.99
2017-05-09T10:40:18.626Z,99.99
2017-05-09T10:41:20.987Z,99.99
2017-05-09T10:42:23.350Z,99.99
2017-05-09T10:43:26.315Z,99.99
2017-05-09T10:44:28.676Z,99.99
2017-05-09T10:45:31.041Z,99.99
2017-05-09T10:46:33.415Z,99.99
2017-05-09T10:47:35.775Z,99.99
2017-05-09T10:48:38.837Z,99.99
2017-05-09T10:49:41.208Z,99.99
2017-05-09T10:50:43.564Z,99.99
2017-05-09T10:51:45.921Z,99.99
2017-05-09T10:52:48.291Z,99.99
2017-05-09T10:53:51.350Z,99.99
2017-05-09T10:54:53.715Z,99.99
2017-05-09T10:55:56.073Z,99.99
2017-05-09T10:56:58.429Z,99.99
2017-05-09T10:58:00.788Z,99.99
2017-05-09T10:59:03.853Z,99.99
2017-05-09T11:00:06.206Z,99.99
2017-05-09T11:01:08.568Z,99.99
2017-05-09T11:02:10.927Z,99.99
2017-05-09T11:03:13.290Z,99.99
2017-05-09T11:04:16.256Z,99.99
2017-05-09T11:05:18.609Z,99.99
2017-05-09T11:06:20.961Z,99.99
2017-05-09T11:07:23.319Z,99.99
2017-05-09T11:08:25.678Z,99.99
2017-05-09T11:09:28.741Z,99.99
2017-05-09T11:10:31.094Z,99.99
2017-05-09T11:11:33.460Z,99.99
2017-05-09T11:12:35.817Z,99.99
2017-05-09T11:13:38.175Z,99.99
2017-05-09T11:14:41.133Z,99.99
2017-05-09T11:15:43.489Z,99.99
2017-05-09T11:16:45.845Z,99.99
2017-05-09T11:17:48.206Z,99.99
2017-05-09T11:18:50.558Z,99.99
2017-05-09T11:19:53.517Z,99.99
2017-05-09T11:20:55.878Z,99.99
2017-05-09T11:21:58.241Z,99.99
2017-05-09T11:23:00.603Z,99.99
2017-05-09T11:24:02.970Z,99.99
2017-05-09T11:25:05.885Z,99.99
2017-05-09T11:26:08.238Z,99.99
2017-05-09T11:27:10.596Z,99.99
2017-05-09T11:28:12.959Z,99.99
2017-05-09T11:29:15.319Z,99.99
2017-05-09T11:30:18.386Z,99.99
2017-05-09T11:31:20.738Z,99.99
2017-05-09T11:32:23.106Z,99.99
2017-05-09T11:33:25.466Z,99.99
2017-05-09T11:34:27.823Z,99.99
2017-05-09T11:35:30.791Z,99.99
2017-05-09T11:36:33.160Z,99.99
2017-05-09T11:37:35.512Z,99.99
2017-05-09T11:38:37.872Z,99.99
2017-05-09T11:39:40.235Z,99.99
2017-05-09T11:40:43.188Z,99.99
2017-05-09T11:41:45.552Z,99.99
2017-05-09T11:42:47.903Z,99.99
2017-05-09T11:43:50.267Z,99.99
2017-05-09T11:44:52.622Z,99.99
2017-05-09T11:45:55.549Z,99.99
2017-05-09T11:46:57.908Z,99.99
2017-05-09T11:48:00.263Z,99.99
2017-05-09T11:49:02.631Z,99.99
2017-05-09T11:50:04.995Z,99.99
2017-05-09T11:51:07.912Z,99.99
2017-05-09T11:52:10.273Z,99.99
2017-05-09T11:53:12.634Z,99.99
2017-05-09T11:54:14.990Z,99.99
2017-05-09T11:55:17.357Z,99.99
2017-05-09T11:56:20.270Z,99.99
2017-05-09T11:57:22.629Z,99.99
2017-05-09T11:58:24.992Z,99.99
2017-05-09T11:59:27.355Z,99.99
2017-05-09T12:00:29.723Z,99.99
2017-05-09T12:01:32.684Z,99.99
2017-05-09T12:02:35.045Z,99.99
2017-05-09T12:03:37.434Z,99.99
2017-05-09T12:04:39.767Z,99.99
2017-05-09T12:05:42.123Z,99.99
2017-05-09T12:06:45.039Z,99.99
2017-05-09T12:07:47.425Z,99.99
2017-05-09T12:08:49.787Z,99.99
2017-05-09T12:09:52.156Z,99.99
2017-05-09T12:10:54.516Z,99.99
2017-05-09T12:11:57.428Z,99.99
2017-05-09T12:12:59.791Z,99.99
2017-05-09T12:14:02.149Z,99.99
2017-05-09T12:15:04.511Z,99.99
2017-05-09T12:16:06.875Z,99.99
2017-05-09T12:17:09.785Z,99.99
2017-05-09T12:18:12.160Z,99.99
2017-05-09T12:19:14.522Z,99.99
2017-05-09T12:20:16.880Z,99.99
2017-05-09T12:21:19.247Z,99.99
2017-05-09T12:22:22.159Z,99.99
2017-05-09T12:23:24.524Z,99.99
2017-05-09T12:24:26.890Z,99.99
2017-05-09T12:25:29.254Z,99.99
2017-05-09T12:26:31.623Z,99.99
2017-05-09T12:27:34.531Z,99.99
2017-05-09T12:28:36.891Z,99.99
2017-05-09T12:29:39.255Z,99.99
2017-05-09T12:30:41.619Z,99.99
2017-05-09T12:31:43.987Z,99.99
2017-05-09T12:32:46.903Z,99.99
2017-05-09T12:33:49.271Z,99.99
2017-05-09T12:34:51.633Z,99.99
2017-05-09T12:35:54.007Z,99.99
2017-05-09T12:36:56.362Z,99.99
2017-05-09T12:37:59.436Z,99.99
2017-05-09T12:39:01.804Z,99.99
2017-05-09T12:40:04.168Z,99.99
2017-05-09T12:41:06.539Z,99.99
2017-05-09T12:42:08.897Z,99.99
2017-05-09T12:43:11.862Z,99.99
2017-05-09T12:44:14.234Z,99.99
2017-05-09T12:45:16.613Z,99.99
2017-05-09T12:46:18.967Z,99.99
2017-05-09T12:47:21.333Z,99.99
2017-05-09T12:48:24.305Z,99.99
2017-05-09T12:49:26.670Z,99.99
2017-05-09T12:50:29.036Z,99.99
2017-05-09T12:51:31.407Z,99.99
2017-05-09T12:52:33.780Z,99.99
2017-05-09T12:53:36.696Z,99.99
2017-05-09T12:54:39.067Z,99.99
2017-05-09T12:55:41.443Z,99.99
2017-05-09T12:56:43.801Z,99.99
2017-05-09T12:57:46.171Z,99.99
2017-05-09T12:58:49.133Z,99.99
2017-05-09T12:59:51.507Z,99.99
2017-05-09T13:00:53.877Z,99.99
2017-05-09T13:01:56.255Z,99.99
2017-05-09T13:02:58.614Z,99.99
2017-05-09T13:04:01.577Z,99.99
2017-05-09T13:05:03.956Z,99.99
2017-05-09T13:06:06.324Z,99.99
2017-05-09T13:07:08.695Z,99.99
2017-05-09T13:08:11.062Z,99.99
2017-05-09T13:09:14.031Z,99.99
2017-05-09T13:10:16.401Z,99.99
2017-05-09T13:11:18.770Z,99.99
2017-05-09T13:12:21.135Z,99.99
2017-05-09T13:13:23.503Z,99.99
2017-05-09T13:14:26.482Z,99.99
2017-05-09T13:15:28.850Z,99.99
2017-05-09T13:16:31.210Z,99.99
2017-05-09T13:17:33.579Z,99.99
2017-05-09T13:18:35.945Z,99.99
2017-05-09T13:19:38.913Z,99.99
2017-05-09T13:20:41.282Z,99.99
2017-05-09T13:21:43.647Z,99.99
2017-05-09T13:22:46.017Z,99.99
2017-05-09T13:23:48.385Z,99.99
2017-05-09T13:24:51.343Z,99.99
2017-05-09T13:25:53.711Z,99.99
2017-05-09T13:26:56.077Z,99.99
2017-05-09T13:27:58.439Z,99.99
2017-05-09T13:29:00.805Z,99.99
2017-05-09T13:30:03.728Z,99.99